Sheridan, WY

12:48 PM MST on March 03, 2015 (GMT -0700)
KWYSHERI2 | Change Station
CLOSE
Current Station
Personal Weather Station
Location: Sheridan, WY
Elevation: 3828 ft
Nearby Weather Stations

Elev 3828 ft 44.81 °N, 106.98 °W | Updated 6 minutes ago

Overcast
Overcast
12.3 °F
Feels Like 5 °F
N
4.0
Wind Variable Wind from North
Gusts 4.0 mph

Today
High -- | Low -- °F
--% Chance of Precip.
Yesterday
High -- | Low -- °F
Precip. -- in
6:42 AM 5:57 PM
Waxing Gibbous, 97% visible
Pressure 30.25 in
Visibility 10.0 miles
Clouds Mostly Cloudy 4800 ft
Overcast 6000 ft
Windchill 5 °F
Dew Point 3 °F
Humidity 67%
Rainfall 0.07 in
Snow Depth Not available.
UV 2 out of 12
Pollen .40 out of 12
Air Quality Not available.
Flu Activity Not available.
METAR KSHR 031853Z AUTO 31009KT 10SM BKN048 OVC060 M12/M18 A3005 RMK AO2 SLP243 T11221178

More Conditions Fewer Conditions

Pressure 30.25 in
Visibility 10.0 miles
Clouds Mostly Cloudy 4800 ft
Overcast 6000 ft
Windchill 5 °F
Dew Point 3 °F
Humidity 67%
Rainfall 0.07 in
Snow Depth Not available.
UV 2 out of 12
Pollen .40 out of 12
Air Quality Not available.
Flu Activity Not available.
METAR KSHR 031853Z AUTO 31009KT 10SM BKN048 OVC060 M12/M18 A3005 RMK AO2 SLP243 T11221178

More Conditions Fewer Conditions

10-Day Weather Forecast

Almanac

Astronomy

Mar. 03, 2015 Rise Set
Actual Time
Civil Twilight
Nautical Twilight
Astronomical Twilight
Moon
Length of Visible Light
Length of Day
Tomorrow will be .
, % of the Moon is Illuminated

Today's Extremes

State Highs State Lows

Community

WunderPhotos

Upload Photos

1,802,217 photos uploaded!

WunderBlogs® & News

Nearby

Air Quality

  Air Quality AQ Index Pollutant
Not available.

Snow Depth

Station Depth Elevation

Earthquake Activity

City Distance Mag. Time & Date
Minimum magnitude displayed is 2.5.

Coastal Water Temperatures

Place Temperature

Nearby Weather Stations